CheckWX is a tool to help pilots better visualize weather data.  It is not intended as a substitute for an official pre-flight weather briefing.

14:42:31 UTC

ESOE METAR
Örebro Airport
Örebro, Sweden
Current

23 mins ago

ESOE 201420Z 08008KT 050V110 9999 FEW040 SCT052 24/14 Q1009
Observed
May-20 @ 14:20 UTC
Wind
  • 080° at 8 KTS
Visibility
10,000+ meters
Flight Rules
VFR
Cloud Levels
  • Few at 4,000' AGL
  • Scattered at 5,200' AGL
Temperature
24°C / 75°F
Dewpoint
14°C / 57°F
Humidity
54%
Altimeter
29.79" Hg
Pressure
1008.92 hPa
Previous

53 mins ago

ESOE 201350Z 09009KT 9999 FEW039 SCT051 24/13 Q1009
Observed
May-20 @ 13:50 UTC
Wind
  • 090° at 9 KTS
Visibility
10,000+ meters
Flight Rules
VFR
Cloud Levels
  • Few at 3,900' AGL
  • Scattered at 5,100' AGL
Temperature
24°C / 75°F
Dewpoint
13°C / 55°F
Humidity
50%
Altimeter
29.79" Hg
Pressure
1008.92 hPa
Previous

1 hour ago

ESOE 201320Z 08008KT 050V110 CAVOK 24/13 Q1009
Observed
May-20 @ 13:20 UTC
Wind
  • 080° at 8 KTS
Visibility
10,000+ meters
Flight Rules
VFR
Cloud Levels
  • Clear skies
Temperature
24°C / 75°F
Dewpoint
13°C / 55°F
Humidity
50%
Altimeter
29.79" Hg
Pressure
1008.92 hPa